createdAt,value
2022-08-23T00:05:45.670Z,99887.00
2022-08-23T00:11:51.765Z,99883.00
2022-08-23T00:17:54.044Z,99883.00
2022-08-23T00:23:56.517Z,99888.00
2022-08-23T00:29:58.850Z,99894.00
2022-08-23T00:36:01.601Z,99895.00
2022-08-23T00:42:45.167Z,99902.00
2022-08-23T00:48:47.513Z,99891.00
2022-08-23T00:54:54.243Z,99890.00
2022-08-23T01:00:59.127Z,99903.00
2022-08-23T01:07:32.466Z,99909.00
2022-08-23T01:13:38.848Z,99904.00
2022-08-23T01:20:10.324Z,99893.00
2022-08-23T01:26:15.921Z,99892.00
2022-08-23T01:32:26.122Z,99892.00
2022-08-23T01:38:28.464Z,99884.00
2022-08-23T01:44:35.759Z,99881.00
2022-08-23T01:50:38.749Z,99878.00
2022-08-23T01:56:41.975Z,99880.00
2022-08-23T02:02:47.390Z,99882.00
2022-08-23T02:09:01.453Z,99870.00
2022-08-23T02:15:09.353Z,99876.00
2022-08-23T02:21:14.219Z,99886.00
2022-08-23T02:27:16.731Z,99882.00
2022-08-23T02:33:20.704Z,99896.00
2022-08-23T02:39:22.921Z,99919.00
2022-08-23T02:45:25.152Z,99922.00
2022-08-23T02:51:27.632Z,99925.00
2022-08-23T02:57:31.585Z,99919.00
2022-08-23T03:03:37.771Z,99920.00
2022-08-23T03:09:41.117Z,99934.00
2022-08-23T03:15:43.482Z,99941.00
2022-08-23T03:21:45.976Z,99959.00
2022-08-23T03:27:50.974Z,99957.00
2022-08-23T03:33:54.030Z,99960.00
2022-08-23T03:39:56.372Z,99971.00
2022-08-23T03:45:58.658Z,99985.00
2022-08-23T03:52:01.583Z,99981.00
2022-08-23T03:58:06.797Z,99994.00
2022-08-23T04:04:09.406Z,99997.00
2022-08-23T04:10:22.033Z,99995.00
2022-08-23T04:16:27.013Z,99997.00
2022-08-23T04:22:29.131Z,99996.00
2022-08-23T04:28:31.563Z,99991.00
2022-08-23T04:34:34.668Z,99992.00
2022-08-23T04:40:55.717Z,99993.00
2022-08-23T04:46:58.111Z,99994.00
2022-08-23T04:53:00.679Z,99985.00
2022-08-23T04:59:04.673Z,99983.00
2022-08-23T05:05:09.754Z,99981.00
2022-08-23T05:11:19.340Z,99990.00
2022-08-23T05:17:23.139Z,99950.00
2022-08-23T05:23:29.340Z,99929.00
2022-08-23T05:29:40.898Z,99936.00
2022-08-23T05:35:46.394Z,99953.00
2022-08-23T05:41:48.827Z,99937.00
2022-08-23T05:47:51.196Z,99921.00
2022-08-23T05:54:08.939Z,99929.00
2022-08-23T06:00:15.593Z,99939.00
2022-08-23T06:06:36.431Z,99928.00
2022-08-23T06:12:42.133Z,99978.00
2022-08-23T06:18:46.092Z,99957.00
2022-08-23T06:25:14.756Z,99914.00
2022-08-23T06:31:49.082Z,99930.00
2022-08-23T06:37:59.173Z,99920.00
2022-08-23T06:44:21.001Z,99934.00
2022-08-23T06:50:43.431Z,99941.00
2022-08-23T06:57:05.616Z,99958.00
2022-08-23T07:03:21.372Z,99950.00
2022-08-23T07:09:53.336Z,99946.00
2022-08-23T07:16:00.802Z,99947.00
2022-08-23T07:22:05.902Z,99964.00
2022-08-23T07:28:11.641Z,99957.00
2022-08-23T07:34:15.784Z,99963.00
2022-08-23T07:40:20.554Z,99988.00
2022-08-23T07:46:27.808Z,99994.00
2022-08-23T07:52:30.775Z,100012.00
2022-08-23T07:58:33.607Z,100032.00
2022-08-23T08:05:02.234Z,100010.00
2022-08-23T08:11:04.999Z,100019.00
2022-08-23T08:17:08.915Z,100021.00
2022-08-23T08:23:31.443Z,100015.00
2022-08-23T08:30:04.107Z,100008.00
2022-08-23T08:36:08.625Z,100006.00
2022-08-23T08:42:50.378Z,100019.00
2022-08-23T08:48:58.716Z,100008.00
2022-08-23T08:55:14.440Z,99999.00
2022-08-23T09:01:22.221Z,99981.00
2022-08-23T09:07:52.276Z,99993.00
2022-08-23T09:14:00.338Z,100003.00
2022-08-23T09:20:07.253Z,99994.00
2022-08-23T09:26:26.891Z,100010.00
2022-08-23T09:32:41.472Z,99980.00
2022-08-23T09:38:58.048Z,99976.00
2022-08-23T09:45:05.422Z,99979.00
2022-08-23T09:51:14.483Z,99978.00
2022-08-23T09:57:23.073Z,99990.00
2022-08-23T10:03:29.558Z,100070.00
2022-08-23T10:09:40.002Z,100056.00
2022-08-23T10:15:56.145Z,99999.00
2022-08-23T10:22:08.737Z,100050.00
2022-08-23T10:29:02.423Z,100039.00
2022-08-23T10:35:24.046Z,99995.00
2022-08-23T10:41:51.505Z,100052.00
2022-08-23T10:48:05.129Z,100040.00
2022-08-23T10:54:12.892Z,99964.00
2022-08-23T11:00:20.282Z,100033.00
2022-08-23T11:06:27.159Z,100032.00
2022-08-23T11:12:31.666Z,99979.00
2022-08-23T11:18:44.627Z,99991.00
2022-08-23T11:25:29.930Z,100028.00
2022-08-23T11:31:38.259Z,100048.00
2022-08-23T11:37:56.238Z,100045.00
2022-08-23T11:44:05.191Z,100048.00
2022-08-23T11:50:57.849Z,100049.00
2022-08-23T11:57:19.193Z,100043.00
2022-08-23T12:03:26.684Z,99995.00
2022-08-23T12:09:29.233Z,100017.00
2022-08-23T12:16:06.561Z,100006.00
2022-08-23T12:22:16.966Z,100015.00
2022-08-23T12:28:30.347Z,99959.00
2022-08-23T12:34:55.266Z,99941.00
2022-08-23T12:40:58.318Z,99928.00
2022-08-23T12:47:12.079Z,99933.00
2022-08-23T12:53:26.223Z,99917.00
2022-08-23T12:59:37.018Z,99923.00
2022-08-23T13:05:45.978Z,99930.00
2022-08-23T13:11:48.707Z,99902.00
2022-08-23T13:18:00.389Z,99948.00
2022-08-23T13:24:38.306Z,99949.00
2022-08-23T13:31:02.453Z,99942.00
2022-08-23T13:37:19.504Z,99931.00
2022-08-23T13:43:46.435Z,99936.00
2022-08-23T13:49:49.307Z,99946.00
2022-08-23T13:55:55.716Z,99934.00
2022-08-23T14:01:59.155Z,99932.00
2022-08-23T14:08:01.497Z,99942.00
2022-08-23T14:14:04.802Z,99929.00
2022-08-23T14:26:31.450Z,99972.00
2022-08-23T14:32:34.186Z,99974.00
2022-08-23T14:38:36.464Z,99956.00
2022-08-23T14:44:38.674Z,99955.00
2022-08-23T14:50:41.615Z,99976.00
2022-08-23T14:56:44.217Z,99972.00
2022-08-23T15:02:47.888Z,99970.00
2022-08-23T15:08:50.305Z,99972.00
2022-08-23T15:14:52.982Z,99985.00
2022-08-23T15:20:56.498Z,99989.00
2022-08-23T15:27:01.426Z,100003.00
2022-08-23T15:33:04.025Z,99999.00
2022-08-23T15:39:06.778Z,99975.00
2022-08-23T15:45:10.013Z,99997.00
2022-08-23T15:51:12.435Z,99984.00
2022-08-23T15:57:17.490Z,100001.00
2022-08-23T16:03:21.743Z,99990.00
2022-08-23T16:09:24.986Z,100001.00
2022-08-23T16:15:27.438Z,99993.00
2022-08-23T16:21:31.208Z,99980.00
2022-08-23T16:27:33.933Z,99985.00
2022-08-23T16:33:36.145Z,100024.00
2022-08-23T16:39:38.508Z,100024.00
2022-08-23T16:45:40.945Z,100035.00
2022-08-23T16:51:43.706Z,100015.00
2022-08-23T16:57:46.094Z,100045.00
2022-08-23T17:03:49.173Z,100075.00
2022-08-23T17:09:51.602Z,100073.00
2022-08-23T17:15:53.835Z,100088.00
2022-08-23T17:21:56.014Z,100114.00
2022-08-23T17:27:59.146Z,100140.00
2022-08-23T17:34:03.445Z,100135.00
2022-08-23T17:40:09.677Z,100122.00
2022-08-23T17:46:11.941Z,100124.00
2022-08-23T17:52:14.416Z,100122.00
2022-08-23T17:58:16.528Z,100131.00
2022-08-23T18:04:18.686Z,100096.00
2022-08-23T18:10:21.271Z,100162.00
2022-08-23T18:16:23.757Z,100247.00
2022-08-23T18:22:26.783Z,100280.00
2022-08-23T18:28:29.492Z,100206.00
2022-08-23T18:34:33.925Z,100102.00
2022-08-23T18:40:45.479Z,100121.00
2022-08-23T18:46:47.969Z,100109.00
2022-08-23T18:52:50.080Z,100137.00
2022-08-23T18:58:52.955Z,100099.00
2022-08-23T19:04:55.969Z,100046.00
2022-08-23T19:10:58.207Z,100010.00
2022-08-23T19:17:02.289Z,100037.00
2022-08-23T19:23:04.926Z,100118.00
2022-08-23T19:29:08.929Z,100191.00
2022-08-23T19:35:13.366Z,100222.00
2022-08-23T19:41:15.542Z,100217.00
2022-08-23T19:47:20.269Z,100189.00
2022-08-23T19:53:24.003Z,100187.00
2022-08-23T19:59:28.305Z,100213.00
2022-08-23T20:05:32.271Z,100271.00
2022-08-23T20:11:34.826Z,100239.00
2022-08-23T20:17:37.619Z,100210.00
2022-08-23T20:23:58.307Z,100194.00
2022-08-23T20:30:01.940Z,100184.00
2022-08-23T20:36:04.842Z,100196.00
2022-08-23T20:42:07.119Z,100227.00
2022-08-23T20:48:11.139Z,100225.00
2022-08-23T20:54:13.731Z,100236.00
2022-08-23T21:00:16.144Z,100237.00
2022-08-23T21:06:45.250Z,100223.00
2022-08-23T21:12:48.865Z,100214.00
2022-08-23T21:18:51.091Z,100215.00
2022-08-23T21:24:56.925Z,100187.00
2022-08-23T21:31:15.312Z,100225.00
2022-08-23T21:37:17.799Z,100213.00
2022-08-23T21:43:19.839Z,100197.00
2022-08-23T21:49:23.410Z,100199.00
2022-08-23T21:55:35.257Z,100161.00
2022-08-23T22:01:39.507Z,100187.00
2022-08-23T22:07:41.634Z,100162.00
2022-08-23T22:13:44.061Z,100167.00
2022-08-23T22:19:46.110Z,100161.00
2022-08-23T22:25:48.614Z,100166.00
2022-08-23T22:31:50.720Z,100166.00
2022-08-23T22:38:14.417Z,100163.00
2022-08-23T22:44:15.685Z,100151.00
2022-08-23T22:50:17.817Z,100159.00
2022-08-23T22:56:24.375Z,100147.00
2022-08-23T23:02:28.498Z,100153.00
2022-08-23T23:08:31.175Z,100158.00
2022-08-23T23:14:33.956Z,100171.00
2022-08-23T23:20:42.229Z,100168.00
2022-08-23T23:26:47.758Z,100170.00
2022-08-23T23:32:50.153Z,100166.00
2022-08-23T23:38:52.938Z,100170.00
2022-08-23T23:44:55.357Z,100188.00
2022-08-23T23:50:57.695Z,100199.00
2022-08-23T23:57:00.433Z,100212.00
